Time;durP1;ratioP1;P1;durP2;ratioP2;P2;SDS_P1;SDS_P2;PMS_P1;PMS_P2;Temp;Humidity;BMP_temperature;BMP_pressure;BME280_temperature;BME280_humidity;BME280_pressure;Samples;Min_cycle;Max_cycle;Signal;HPM_P1;HPM_P2
2022/08/11 00:00:05;;;;;;;1.48;0.20;;;19.40;99.90;;;;;;5054238;28;20061;-73
2022/08/11 00:02:44;;;;;;;1.05;0.50;;;19.40;99.90;;;;;;5052988;28;20471;-72
2022/08/11 00:05:18;;;;;;;1.42;0.45;;;19.30;99.90;;;;;;5053722;28;20033;-72
2022/08/11 00:07:51;;;;;;;2.70;0.60;;;19.30;99.90;;;;;;5054505;28;20020;-72
2022/08/11 00:10:22;;;;;;;1.83;0.20;;;19.30;99.90;;;;;;5054182;28;20063;-72
2022/08/11 00:12:57;;;;;;;5.82;0.15;;;19.30;99.90;;;;;;5053889;28;20044;-72
2022/08/11 00:15:35;;;;;;;3.00;0.28;;;19.20;99.90;;;;;;5054490;28;20026;-73
2022/08/11 00:18:02;;;;;;;2.65;0.10;;;19.20;99.90;;;;;;5052690;28;20029;-73
2022/08/11 00:20:31;;;;;;;1.23;0.40;;;19.20;99.90;;;;;;5053895;28;20055;-73
2022/08/11 00:23:05;;;;;;;1.48;0.17;;;19.20;99.90;;;;;;5053116;28;20040;-73
2022/08/11 00:25:38;;;;;;;0.77;0.10;;;19.20;99.90;;;;;;5054394;28;20052;-74
2022/08/11 00:28:03;;;;;;;1.45;0.20;;;19.20;99.90;;;;;;5052493;28;20025;-73
2022/08/11 00:30:38;;;;;;;2.58;0.10;;;19.20;99.90;;;;;;5052388;28;20093;-73
2022/08/11 00:33:05;;;;;;;1.23;0.40;;;19.10;99.90;;;;;;5054147;28;20024;-73
2022/08/11 00:35:32;;;;;;;1.88;0.20;;;19.10;99.90;;;;;;5054113;28;20021;-73
2022/08/11 00:37:59;;;;;;;3.40;0.30;;;19.00;99.90;;;;;;5054164;28;20017;-73
2022/08/11 00:40:37;;;;;;;1.17;0.20;;;19.10;99.90;;;;;;5053524;28;20040;-74
2022/08/11 00:43:25;;;;;;;0.75;0.13;;;19.00;99.90;;;;;;5053762;28;20496;-74
2022/08/11 00:46:12;;;;;;;1.15;0.30;;;19.00;99.90;;;;;;5053535;28;20035;-74
2022/08/11 00:49:02;;;;;;;2.15;0.65;;;19.00;99.90;;;;;;5053528;28;20021;-74
2022/08/11 00:52:10;;;;;;;0.68;0.30;;;19.00;99.90;;;;;;5052194;28;20052;-75
2022/08/11 00:54:38;;;;;;;4.72;0.40;;;19.00;99.90;;;;;;5052857;28;20036;-73
2022/08/11 00:57:12;;;;;;;0.20;0.15;;;18.90;99.90;;;;;;5053349;28;20065;-73
2022/08/11 01:00:15;;;;;;;7.63;0.20;;;18.90;99.90;;;;;;5052081;28;20029;-74
2022/08/11 01:02:51;;;;;;;1.02;0.38;;;18.80;99.90;;;;;;5053287;28;20071;-74
2022/08/11 01:05:30;;;;;;;0.30;0.10;;;18.80;99.90;;;;;;5052096;28;20029;-74
2022/08/11 01:08:46;;;;;;;2.58;0.45;;;18.80;99.90;;;;;;5053653;28;20021;-73
2022/08/11 01:11:30;;;;;;;1.45;0.50;;;18.70;99.90;;;;;;5019532;28;20052;-73
2022/08/11 01:14:17;;;;;;;2.83;0.38;;;18.60;99.90;;;;;;5053043;28;20037;-73
2022/08/11 01:16:51;;;;;;;5.63;0.70;;;18.60;99.90;;;;;;5056422;28;20025;-73
2022/08/11 01:19:42;;;;;;;3.97;0.50;;;18.50;99.90;;;;;;5059923;28;20025;-74
2022/08/11 01:22:16;;;;;;;0.57;0.05;;;18.50;99.90;;;;;;5058463;28;20029;-74
2022/08/11 01:24:49;;;;;;;1.52;0.45;;;18.50;99.90;;;;;;5058422;28;20063;-75
2022/08/11 01:27:38;;;;;;;1.75;0.30;;;18.50;99.90;;;;;;5058533;28;20044;-75
2022/08/11 01:30:22;;;;;;;2.42;0.20;;;18.40;99.90;;;;;;5059728;28;20060;-75
2022/08/11 01:33:09;;;;;;;0.47;0.40;;;18.40;99.90;;;;;;5059633;28;20021;-75
2022/08/11 01:36:05;;;;;;;1.60;0.22;;;18.30;99.90;;;;;;5058703;28;20029;-74
2022/08/11 01:39:16;;;;;;;0.90;0.50;;;18.30;99.90;;;;;;5059818;28;20025;-74
2022/08/11 01:45:17;;;;;;;0.25;0.10;;;18.20;99.90;;;;;;5059803;28;20039;-74
2022/08/11 01:48:01;;;;;;;3.97;0.73;;;18.20;99.90;;;;;;5059953;28;20025;-74
2022/08/11 01:50:41;;;;;;;6.00;0.57;;;18.20;99.90;;;;;;5059870;28;20037;-74
2022/08/11 01:53:16;;;;;;;1.50;0.38;;;18.10;99.90;;;;;;5059678;28;20028;-74
2022/08/11 01:55:58;;;;;;;0.35;0.20;;;18.10;99.90;;;;;;5059902;28;20029;-74
2022/08/11 01:58:49;;;;;;;2.08;0.40;;;18.20;99.90;;;;;;5058717;28;20028;-74
2022/08/11 02:01:39;;;;;;;0.77;0.25;;;18.20;99.90;;;;;;5060447;28;20025;-73
2022/08/11 02:04:32;;;;;;;4.75;0.63;;;18.10;99.90;;;;;;5060979;28;20048;-73
2022/08/11 02:07:02;;;;;;;2.28;0.35;;;18.10;99.90;;;;;;5060936;28;20067;-73
2022/08/11 02:09:45;;;;;;;2.30;0.50;;;18.10;99.90;;;;;;5060732;28;20031;-73
2022/08/11 02:12:38;;;;;;;0.70;0.35;;;18.10;99.90;;;;;;5060758;28;20527;-73
2022/08/11 02:15:35;;;;;;;0.93;0.45;;;18.10;99.90;;;;;;5060612;28;20037;-73
2022/08/11 02:18:20;;;;;;;1.88;0.50;;;18.00;99.90;;;;;;5058989;28;20079;-74
2022/08/11 02:24:05;;;;;;;1.75;0.43;;;18.00;99.90;;;;;;5060827;28;20089;-74
2022/08/11 02:26:45;;;;;;;2.75;0.10;;;18.00;99.90;;;;;;5059023;28;20124;-73
2022/08/11 02:29:23;;;;;;;2.97;0.30;;;18.00;99.90;;;;;;5055544;28;20111;-73
2022/08/11 02:35:00;;;;;;;5.53;0.68;;;17.90;99.90;;;;;;5056796;28;20032;-74
2022/08/11 02:37:43;;;;;;;1.80;0.60;;;17.90;99.90;;;;;;5054977;28;20018;-73
2022/08/11 02:40:15;;;;;;;3.08;0.50;;;17.90;99.90;;;;;;5057843;28;20021;-73
2022/08/11 02:42:43;;;;;;;1.83;0.60;;;17.90;99.90;;;;;;5057883;28;20021;-73
2022/08/11 02:45:40;;;;;;;3.28;0.30;;;17.90;99.90;;;;;;5056948;28;20482;-73
2022/08/11 02:51:52;;;;;;;0.47;0.30;;;17.90;99.90;;;;;;5056292;28;20051;-74
2022/08/11 02:54:34;;;;;;;6.00;0.60;;;17.90;99.90;;;;;;5055598;28;20412;-74
2022/08/11 02:57:08;;;;;;;1.42;0.50;;;17.80;99.90;;;;;;5057953;28;20025;-73
2022/08/11 02:59:59;;;;;;;2.90;0.30;;;17.80;99.90;;;;;;5056019;28;20070;-73
2022/08/11 03:02:30;;;;;;;1.92;0.55;;;17.80;99.90;;;;;;5057588;28;20029;-73
2022/08/11 03:05:12;;;;;;;2.45;0.52;;;17.80;99.90;;;;;;5057346;28;20032;-73
2022/08/11 03:08:09;;;;;;;0.82;0.43;;;17.70;99.90;;;;;;5056222;28;20025;-73
2022/08/11 03:16:59;;;;;;;1.73;0.52;;;17.70;99.90;;;;;;5057867;28;20374;-73
2022/08/11 03:20:06;;;;;;;2.30;0.47;;;17.70;99.90;;;;;;5057211;28;20020;-73
2022/08/11 03:23:03;;;;;;;4.28;0.50;;;17.60;99.90;;;;;;5023380;28;20029;-74
2022/08/11 03:25:45;;;;;;;1.60;0.40;;;17.60;99.90;;;;;;4987434;28;20033;-73
2022/08/11 03:28:27;;;;;;;1.27;0.55;;;17.60;99.90;;;;;;5056027;28;20028;-73
2022/08/11 03:31:18;;;;;;;2.00;0.43;;;17.50;99.90;;;;;;5056041;28;20024;-74
2022/08/11 03:34:01;;;;;;;3.92;0.75;;;17.50;99.90;;;;;;5056439;28;20496;-73
2022/08/11 03:36:58;;;;;;;1.50;0.50;;;17.40;99.90;;;;;;5055498;28;20421;-74
2022/08/11 03:39:36;;;;;;;1.52;0.60;;;17.30;99.90;;;;;;5053522;28;20121;-74
2022/08/11 03:42:31;;;;;;;4.03;0.77;;;17.30;99.90;;;;;;5054466;28;20029;-74
2022/08/11 03:45:16;;;;;;;2.35;1.10;;;17.30;99.90;;;;;;5055252;28;20385;-74
2022/08/11 03:47:59;;;;;;;1.27;0.65;;;17.30;99.90;;;;;;5054588;28;20025;-74
2022/08/11 03:50:46;;;;;;;3.78;1.20;;;17.20;99.90;;;;;;5054552;28;20025;-74
2022/08/11 03:53:49;;;;;;;4.70;1.00;;;17.20;99.90;;;;;;5054831;28;20115;-74
2022/08/11 03:56:38;;;;;;;2.47;0.45;;;17.20;99.90;;;;;;5053199;28;20032;-74
2022/08/11 03:59:35;;;;;;;2.33;0.80;;;17.20;99.90;;;;;;5053169;28;20115;-74
2022/08/11 04:02:21;;;;;;;0.98;0.47;;;17.20;99.90;;;;;;5054510;28;20083;-73
2022/08/11 04:05:24;;;;;;;2.03;0.73;;;17.10;99.90;;;;;;5055429;28;20082;-73
2022/08/11 04:08:21;;;;;;;1.48;1.02;;;17.10;99.90;;;;;;5055521;28;20080;-73
2022/08/11 04:11:10;;;;;;;1.52;0.85;;;17.10;99.90;;;;;;5056317;28;20017;-75
2022/08/11 04:17:19;;;;;;;4.18;0.85;;;17.00;99.90;;;;;;5054851;28;20059;-74
2022/08/11 04:20:06;;;;;;;0.93;0.68;;;16.90;99.90;;;;;;5053967;28;20453;-75
2022/08/11 04:23:19;;;;;;;0.80;0.50;;;16.90;99.90;;;;;;5054402;28;20029;-74
2022/08/11 04:26:22;;;;;;;3.08;1.08;;;16.90;99.90;;;;;;5026907;28;20040;-74
2022/08/11 04:29:06;;;;;;;0.60;0.52;;;16.90;99.90;;;;;;5053794;28;20028;-74
2022/08/11 04:31:49;;;;;;;1.40;0.95;;;16.90;99.90;;;;;;5053775;28;20411;-74
2022/08/11 04:34:20;;;;;;;1.83;0.90;;;16.90;99.90;;;;;;5053594;28;20033;-74
2022/08/11 04:37:33;;;;;;;2.13;0.95;;;16.90;99.90;;;;;;5053576;28;20021;-75
2022/08/11 04:40:37;;;;;;;2.00;1.10;;;16.90;99.90;;;;;;5023681;28;20025;-75
2022/08/11 04:43:21;;;;;;;1.98;0.90;;;16.90;99.90;;;;;;5053560;28;20487;-75
2022/08/11 04:46:27;;;;;;;4.93;1.10;;;16.90;99.90;;;;;;5053501;28;20056;-74
2022/08/11 05:02:35;;;;;;;1.90;0.95;;;17.20;99.90;;;;;;5053902;28;20122;-74
2022/08/11 05:05:31;;;;;;;1.70;0.40;;;17.20;99.90;;;;;;5053795;28;20050;-74
2022/08/11 05:08:02;;;;;;;2.78;0.98;;;17.30;99.90;;;;;;5053314;28;20079;-74
2022/08/11 05:10:52;;;;;;;2.78;1.17;;;17.30;99.90;;;;;;5052034;28;20047;-74
2022/08/11 05:36:30;;;;;;;4.25;1.58;;;18.00;99.90;;;;;;5052999;28;20052;-75
2022/08/11 05:58:32;;;;;;;2.47;0.98;;;18.80;99.90;;;;;;5053616;28;20078;-75
2022/08/11 06:00:58;;;;;;;4.63;0.70;;;18.90;99.90;;;;;;5051454;28;20048;-74
2022/08/11 06:03:28;;;;;;;11.05;1.35;;;19.00;99.90;;;;;;5052349;28;20539;-75
2022/08/11 06:05:56;;;;;;;1.60;0.70;;;19.10;99.90;;;;;;5055517;28;20467;-75
2022/08/11 06:08:37;;;;;;;3.63;0.70;;;19.20;99.90;;;;;;5056444;28;20378;-75
2022/08/11 06:11:04;;;;;;;1.45;0.90;;;19.20;99.90;;;;;;5056629;28;20405;-75
2022/08/11 06:13:30;;;;;;;2.03;1.15;;;19.30;99.90;;;;;;5054936;28;20410;-75
2022/08/11 06:15:57;;;;;;;1.55;0.70;;;19.40;99.90;;;;;;5056296;28;20025;-75
2022/08/11 06:18:24;;;;;;;2.60;0.63;;;19.50;99.90;;;;;;5056207;28;20035;-75
2022/08/11 06:20:55;;;;;;;4.18;0.88;;;19.60;99.90;;;;;;5056318;28;20497;-74
2022/08/11 06:23:22;;;;;;;2.60;0.82;;;19.70;99.90;;;;;;5056506;28;20032;-74
2022/08/11 06:25:51;;;;;;;1.95;0.60;;;19.80;99.90;;;;;;5054911;28;20071;-75
2022/08/11 06:28:18;;;;;;;3.47;0.55;;;19.90;99.90;;;;;;5056429;28;20037;-74
2022/08/11 06:30:45;;;;;;;0.60;0.25;;;20.00;99.90;;;;;;5056124;28;20025;-74
2022/08/11 06:33:42;;;;;;;3.08;0.30;;;20.20;99.90;;;;;;5055950;28;20066;-74
2022/08/11 06:36:14;;;;;;;1.08;0.25;;;20.30;99.90;;;;;;5056173;28;20025;-74
2022/08/11 06:39:11;;;;;;;2.95;0.40;;;20.40;99.90;;;;;;5055900;28;20052;-74
2022/08/11 06:41:48;;;;;;;2.58;0.32;;;20.60;99.90;;;;;;5054610;28;20517;-74
2022/08/11 06:44:13;;;;;;;3.50;0.43;;;20.70;99.90;;;;;;5055817;28;20032;-74
2022/08/11 06:46:45;;;;;;;2.03;0.82;;;20.90;99.90;;;;;;5054465;28;20029;-74
2022/08/11 06:52:03;;;;;;;1.90;0.20;;;21.10;99.90;;;;;;5056116;28;20393;-76
2022/08/11 06:54:32;;;;;;;4.25;0.25;;;21.20;99.90;;;;;;5055462;28;20099;-76
2022/08/11 07:02:50;;;;;;;3.47;0.17;;;21.70;99.90;;;;;;5055468;28;20083;-74
2022/08/11 07:05:26;;;;;;;2.67;0.75;;;21.80;99.90;;;;;;5054169;28;20055;-74
2022/08/11 07:16:57;;;;;;;2.05;0.10;;;22.40;99.90;;;;;;5096026;28;20042;-76
2022/08/11 07:31:00;;;;;;;1.00;0.10;;;23.30;99.90;;;;;;5096134;28;20055;-77
2022/08/11 07:33:42;;;;;;;2.80;0.15;;;23.40;99.80;;;;;;5094063;28;20498;-75
2022/08/11 07:36:11;;;;;;;3.55;0.10;;;23.40;99.00;;;;;;5093738;28;20070;-75
2022/08/11 07:38:43;;;;;;;4.28;0.00;;;23.60;98.80;;;;;;5095023;28;20020;-75
2022/08/11 07:41:15;;;;;;;0.35;0.20;;;23.80;98.50;;;;;;5094979;28;20092;-76
2022/08/11 07:43:42;;;;;;;0.90;0.10;;;23.90;98.20;;;;;;5095420;28;20480;-77
2022/08/11 07:54:26;;;;;;;0.75;0.00;;;24.70;94.60;;;;;;5095506;28;20111;-76
2022/08/11 07:56:52;;;;;;;1.95;0.10;;;24.80;93.20;;;;;;5094686;28;20027;-76
2022/08/11 08:18:37;;;;;;;0.55;0.00;;;25.90;81.70;;;;;;5094695;28;20089;-76
2022/08/11 08:21:10;;;;;;;2.05;0.10;;;26.10;81.20;;;;;;5094496;28;20048;-76
2022/08/11 08:23:38;;;;;;;0.60;0.00;;;26.30;80.60;;;;;;5092900;28;20028;-76
2022/08/11 08:30:46;;;;;;;1.95;0.00;;;26.60;75.00;;;;;;5095028;28;20026;-76
2022/08/11 08:31:47;;;;;;;2.03;0.20;;;26.70;75.00;;;;;;5093769;28;20024;-76
2022/08/11 08:34:14;;;;;;;0.75;0.00;;;26.80;74.10;;;;;;5093965;28;20028;-76
2022/08/11 08:36:43;;;;;;;0.95;0.00;;;26.90;73.70;;;;;;5094301;28;20095;-76
2022/08/11 08:39:10;;;;;;;1.67;0.10;;;27.10;74.10;;;;;;5094578;28;20012;-76
2022/08/11 08:41:37;;;;;;;0.50;0.00;;;27.20;72.80;;;;;;5093841;28;20492;-76
2022/08/11 08:44:07;;;;;;;0.75;0.00;;;27.30;71.60;;;;;;5092521;28;20069;-76
2022/08/11 08:46:41;;;;;;;0.60;0.10;;;27.40;70.40;;;;;;5093806;28;20453;-76
2022/08/11 08:49:12;;;;;;;1.85;0.05;;;27.50;66.70;;;;;;5094170;28;20022;-77
2022/08/11 08:51:42;;;;;;;3.40;0.10;;;27.60;67.10;;;;;;5093749;28;20089;-77
2022/08/11 08:54:13;;;;;;;3.20;0.05;;;27.70;66.80;;;;;;5092399;28;20012;-76
2022/08/11 08:56:41;;;;;;;1.95;0.03;;;27.80;64.50;;;;;;5093830;28;20393;-76
2022/08/11 08:59:08;;;;;;;1.08;0.00;;;27.90;65.40;;;;;;5094616;28;20027;-75
2022/08/11 09:01:58;;;;;;;3.20;0.10;;;28.00;64.20;;;;;;5092862;28;20020;-76
2022/08/11 09:04:25;;;;;;;0.63;0.10;;;28.10;63.80;;;;;;5092738;28;20028;-76
2022/08/11 09:06:52;;;;;;;0.47;0.20;;;28.30;63.20;;;;;;5094010;28;20047;-76
2022/08/11 09:09:20;;;;;;;2.22;0.00;;;28.40;62.90;;;;;;5093649;28;20035;-77
2022/08/11 09:11:52;;;;;;;0.20;0.00;;;28.50;60.50;;;;;;5093651;28;20020;-77
2022/08/11 09:14:59;;;;;;;1.08;0.10;;;28.70;60.60;;;;;;5093680;28;20025;-76
2022/08/11 09:17:10;;;;;;;0.50;0.00;;;28.70;60.70;;;;;;5093435;28;20064;-76
2022/08/11 09:19:36;;;;;;;4.38;0.65;;;28.80;58.20;;;;;;5093966;28;20051;-76
2022/08/11 09:27:33;;;;;;;0.75;0.00;;;29.00;57.50;;;;;;5093860;28;20043;-76
2022/08/11 09:29:59;;;;;;;1.67;0.00;;;29.20;56.40;;;;;;5092386;28;20024;-76
2022/08/11 09:32:27;;;;;;;0.43;0.13;;;29.20;55.00;;;;;;5093475;28;20491;-76
2022/08/11 09:34:53;;;;;;;;;;;29.30;53.60;;;;;;5093908;28;20103;-76
2022/08/11 09:40:27;;;;;;;0.43;0.00;;;29.40;54.90;;;;;;5098360;28;20037;-77
2022/08/11 09:45:49;;;;;;;2.30;0.10;;;29.60;51.90;;;;;;5097967;28;20043;-76
2022/08/11 09:48:16;;;;;;;0.75;0.10;;;29.70;52.20;;;;;;5097931;28;20035;-78
2022/08/11 09:50:47;;;;;;;1.57;0.20;;;29.70;52.40;;;;;;5102500;28;20031;-78
2022/08/11 09:53:15;;;;;;;0.90;0.00;;;29.80;53.30;;;;;;5097966;28;20024;-76
2022/08/11 09:55:42;;;;;;;;;;;30.00;53.90;;;;;;5098040;28;20500;-78
2022/08/11 09:58:15;;;;;;;0.43;0.00;;;30.00;51.30;;;;;;5099534;28;20002;-79
2022/08/11 10:00:42;;;;;;;3.10;0.00;;;30.10;51.30;;;;;;5096363;28;20533;-78
2022/08/11 10:03:21;;;;;;;1.80;0.00;;;30.20;51.20;;;;;;5097664;28;20051;-77
2022/08/11 10:08:40;;;;;;;0.32;0.00;;;30.40;49.50;;;;;;5097762;28;20039;-77
2022/08/11 10:11:10;;;;;;;0.73;0.10;;;30.60;50.10;;;;;;5096871;28;20047;-75
2022/08/11 10:16:31;;;;;;;0.47;0.05;;;30.70;48.70;;;;;;5097504;28;20438;-77
2022/08/11 10:19:00;;;;;;;2.45;0.00;;;30.80;46.90;;;;;;5096957;28;20026;-77
2022/08/11 10:21:43;;;;;;;0.55;0.10;;;30.90;47.10;;;;;;5096575;28;20035;-75
2022/08/11 10:27:01;;;;;;;0.90;0.00;;;31.00;46.90;;;;;;5097311;28;20035;-74
2022/08/11 10:35:12;;;;;;;2.75;0.15;;;31.50;47.30;;;;;;5097036;28;20032;-75
2022/08/11 10:37:39;;;;;;;1.00;0.00;;;31.50;46.30;;;;;;5096230;28;20020;-75
2022/08/11 10:40:07;;;;;;;0.40;0.00;;;31.70;46.20;;;;;;5096324;28;20020;-75
2022/08/11 10:48:04;;;;;;;3.40;0.00;;;32.00;45.00;;;;;;5096377;28;20507;-75
2022/08/11 10:58:48;;;;;;;0.17;0.00;;;32.60;43.50;;;;;;5096425;28;20031;-76
2022/08/11 11:01:22;;;;;;;2.70;0.00;;;32.70;42.60;;;;;;5095737;28;20062;-75
2022/08/11 11:03:53;;;;;;;1.10;0.00;;;32.80;43.20;;;;;;5096085;28;20388;-75
2022/08/11 11:06:26;;;;;;;2.08;0.28;;;32.80;43.40;;;;;;5095731;28;20024;-75
2022/08/11 11:09:02;;;;;;;1.45;0.08;;;32.90;43.60;;;;;;5067068;28;20116;-75
2022/08/11 11:19:54;;;;;;;0.90;0.25;;;33.20;41.90;;;;;;5055250;28;19952;-75
2022/08/11 11:22:39;;;;;;;1.55;0.00;;;33.40;41.60;;;;;;5053961;28;20025;-75
2022/08/11 11:25:19;;;;;;;4.05;0.43;;;33.40;41.80;;;;;;5053776;28;20032;-75
2022/08/11 11:28:12;;;;;;;0.10;0.00;;;33.40;41.20;;;;;;5055302;28;20064;-75
2022/08/11 11:31:01;;;;;;;0.10;0.00;;;33.40;40.80;;;;;;5055047;28;20393;-75
2022/08/11 11:33:58;;;;;;;0.77;0.05;;;33.50;41.30;;;;;;5055576;28;20036;-75
2022/08/11 11:36:52;;;;;;;3.80;0.03;;;33.60;40.70;;;;;;5054832;28;20040;-75
2022/08/11 11:39:24;;;;;;;1.75;0.00;;;33.70;39.60;;;;;;5054782;28;20025;-75
2022/08/11 11:41:55;;;;;;;1.05;0.20;;;33.90;40.40;;;;;;5055027;28;20017;-75
2022/08/11 11:44:25;;;;;;;0.17;0.00;;;34.10;39.90;;;;;;5054754;28;20665;-75
2022/08/11 11:46:54;;;;;;;3.28;0.38;;;34.20;40.20;;;;;;5054776;28;20108;-75
2022/08/11 11:49:26;;;;;;;1.25;0.08;;;34.30;39.80;;;;;;5054635;28;20032;-75
2022/08/11 11:51:57;;;;;;;1.27;0.00;;;34.50;40.60;;;;;;5054479;28;20021;-75
2022/08/11 11:54:26;;;;;;;0.75;0.00;;;34.70;40.10;;;;;;5054482;28;20024;-75
2022/08/11 11:56:53;;;;;;;0.88;0.00;;;35.00;39.50;;;;;;5054555;28;20028;-75
2022/08/11 12:02:10;;;;;;;1.55;0.10;;;35.30;38.40;;;;;;5054020;28;20036;-75
2022/08/11 12:04:44;;;;;;;0.85;0.00;;;35.50;38.70;;;;;;5054582;28;20029;-75
2022/08/11 12:09:57;;;;;;;0.50;0.00;;;35.90;37.60;;;;;;5054256;28;20024;-76
2022/08/11 12:15:08;;;;;;;0.28;0.00;;;36.30;38.20;;;;;;5054321;28;20032;-74
2022/08/11 12:17:35;;;;;;;2.85;0.30;;;36.30;37.50;;;;;;5054057;28;20021;-74
2022/08/11 12:20:02;;;;;;;4.30;0.03;;;36.20;36.50;;;;;;5054049;28;20088;-75
2022/08/11 12:28:03;;;;;;;1.45;0.00;;;36.50;37.40;;;;;;5054234;28;20517;-74
2022/08/11 12:30:29;;;;;;;1.25;0.00;;;36.60;36.70;;;;;;5053992;28;20029;-74
2022/08/11 12:32:56;;;;;;;3.58;0.00;;;36.80;36.70;;;;;;5054120;28;20031;-75
2022/08/11 12:35:21;;;;;;;0.22;0.00;;;36.80;37.00;;;;;;5054017;28;20095;-76
2022/08/11 12:37:55;;;;;;;2.55;0.00;;;36.70;36.40;;;;;;5054005;28;20021;-76
2022/08/11 12:46:05;;;;;;;2.20;0.00;;;37.00;35.60;;;;;;5053670;28;20051;-75
2022/08/11 12:54:11;;;;;;;0.08;0.00;;;37.20;35.00;;;;;;5053808;28;19919;-75
2022/08/11 13:05:06;;;;;;;0.00;0.00;;;37.50;35.80;;;;;;5053480;28;20059;-75
2022/08/11 13:07:33;;;;;;;3.28;0.00;;;37.70;35.00;;;;;;5053307;28;20052;-75
2022/08/11 13:10:04;;;;;;;0.25;0.00;;;38.10;35.30;;;;;;5053285;28;20025;-75
2022/08/11 13:12:47;;;;;;;0.10;0.00;;;38.20;34.90;;;;;;5052870;28;20037;-75
2022/08/11 13:15:17;;;;;;;3.00;0.10;;;38.20;34.10;;;;;;5052208;28;20547;-76
2022/08/11 13:17:46;;;;;;;0.55;0.00;;;38.30;35.00;;;;;;5052532;28;20111;-76
2022/08/11 13:20:13;;;;;;;2.33;0.10;;;38.50;35.10;;;;;;5052158;28;20063;-75
2022/08/11 13:22:44;;;;;;;0.57;0.00;;;38.60;35.10;;;;;;5052910;28;20112;-75
2022/08/11 13:25:12;;;;;;;0.10;0.00;;;38.80;34.60;;;;;;5053458;28;20055;-75
2022/08/11 13:27:39;;;;;;;3.65;0.10;;;38.90;33.70;;;;;;5053248;28;20436;-75
2022/08/11 13:32:51;;;;;;;0.10;0.00;;;38.70;34.40;;;;;;5053434;28;20445;-74
2022/08/11 13:35:18;;;;;;;;;;;38.80;33.70;;;;;;5053518;28;20025;-76
2022/08/11 13:37:46;;;;;;;1.85;0.10;;;38.90;33.30;;;;;;5051762;28;19904;-76
2022/08/11 13:40:13;;;;;;;1.50;0.00;;;38.80;33.90;;;;;;5053282;28;20048;-76
2022/08/11 13:42:40;;;;;;;2.30;0.00;;;38.70;32.10;;;;;;5053400;28;20382;-76
2022/08/11 13:45:07;;;;;;;1.08;0.00;;;38.80;33.20;;;;;;5053042;28;20013;-77
2022/08/11 13:47:34;;;;;;;1.93;0.00;;;38.80;33.80;;;;;;5053042;28;20021;-77
2022/08/11 13:50:03;;;;;;;0.28;0.00;;;39.10;33.70;;;;;;5051752;28;20033;-77
2022/08/11 13:52:29;;;;;;;1.33;0.00;;;39.10;33.40;;;;;;5051939;28;20024;-77
2022/08/11 13:54:58;;;;;;;0.28;0.00;;;39.30;33.20;;;;;;5051686;28;20032;-77
2022/08/11 13:57:24;;;;;;;1.40;0.00;;;39.30;32.80;;;;;;5052954;28;20021;-77
2022/08/11 14:00:08;;;;;;;0.38;0.00;;;39.40;32.80;;;;;;5052863;28;20027;-77
2022/08/11 14:02:38;;;;;;;1.35;0.00;;;39.40;32.40;;;;;;5051751;28;20104;-77
2022/08/11 14:05:14;;;;;;;0.50;0.15;;;39.40;32.50;;;;;;5053534;28;20024;-78
2022/08/11 14:08:00;;;;;;;0.50;0.00;;;39.10;32.00;;;;;;5052286;28;20482;-79
2022/08/11 14:10:30;;;;;;;0.35;0.00;;;39.20;32.80;;;;;;5052959;28;20077;-76
2022/08/11 14:15:47;;;;;;;0.25;0.00;;;39.40;33.00;;;;;;5053328;28;20043;-75
2022/08/11 14:18:20;;;;;;;1.00;0.00;;;39.50;32.00;;;;;;5053109;28;20088;-74
2022/08/11 14:23:40;;;;;;;0.35;0.00;;;39.40;32.10;;;;;;5053716;28;20386;-75
2022/08/11 14:26:25;;;;;;;0.17;0.00;;;39.50;31.80;;;;;;5056061;28;20025;-73
2022/08/11 14:29:11;;;;;;;0.05;0.00;;;39.70;32.10;;;;;;5056322;28;20035;-73
2022/08/11 14:31:42;;;;;;;0.80;0.00;;;39.70;31.80;;;;;;5055853;28;20119;-74
2022/08/11 14:34:11;;;;;;;0.73;0.00;;;39.60;31.50;;;;;;5055953;28;20025;-74
2022/08/11 14:36:44;;;;;;;0.40;0.00;;;39.50;31.50;;;;;;5056311;28;20072;-73
2022/08/11 14:39:15;;;;;;;0.10;0.00;;;39.40;31.40;;;;;;5055170;28;20418;-73
2022/08/11 14:47:19;;;;;;;2.08;0.20;;;39.60;31.70;;;;;;5056949;28;20044;-73
2022/08/11 14:49:46;;;;;;;1.98;0.00;;;39.70;31.80;;;;;;5056073;28;20024;-73
2022/08/11 14:52:14;;;;;;;2.10;0.00;;;39.60;31.20;;;;;;5056223;28;20028;-73
2022/08/11 14:57:34;;;;;;;0.17;0.00;;;39.40;31.90;;;;;;5056701;28;20031;-73
2022/08/11 15:00:02;;;;;;;0.88;0.10;;;39.80;32.50;;;;;;5056004;28;20385;-76
2022/08/11 15:05:19;;;;;;;1.67;0.15;;;40.70;31.70;;;;;;5056276;28;20035;-76
2022/08/11 15:07:45;;;;;;;1.75;0.00;;;41.20;30.40;;;;;;5055783;28;20041;-76
2022/08/11 15:10:11;;;;;;;0.68;0.00;;;41.30;30.20;;;;;;5055648;28;20032;-74
2022/08/11 15:12:40;;;;;;;0.13;0.00;;;41.60;30.70;;;;;;5055278;28;20100;-74
2022/08/11 15:17:55;;;;;;;3.10;0.00;;;42.30;30.40;;;;;;5056160;28;20039;-74
2022/08/11 15:26:02;;;;;;;0.47;0.00;;;42.90;29.70;;;;;;5045144;28;20036;-72
2022/08/11 15:46:09;;;;;;;0.03;0.03;;;44.30;28.60;;;;;;5055225;28;20520;-75
2022/08/11 15:48:56;;;;;;;0.43;0.10;;;43.80;28.50;;;;;;5054791;28;20029;-75
2022/08/11 15:51:57;;;;;;;5.97;0.75;;;43.40;29.10;;;;;;5064587;28;20036;-73
2022/08/11 15:54:29;;;;;;;3.08;0.00;;;43.40;28.70;;;;;;5067170;28;20032;-73
2022/08/11 15:56:57;;;;;;;0.65;0.08;;;43.80;29.20;;;;;;5067359;28;20505;-72
2022/08/11 16:04:54;;;;;;;2.00;0.00;;;44.30;28.30;;;;;;5054705;28;19916;-72
2022/08/11 16:07:25;;;;;;;0.45;0.00;;;44.60;28.50;;;;;;5068555;28;20021;-73
2022/08/11 16:10:08;;;;;;;0.30;0.00;;;44.80;28.50;;;;;;5054592;28;20454;-72
2022/08/11 16:18:19;;;;;;;0.25;0.00;;;45.00;28.40;;;;;;5055230;28;20115;-74
2022/08/11 16:20:45;;;;;;;1.05;0.00;;;44.80;28.40;;;;;;5069963;28;20024;-74
2022/08/11 16:23:14;;;;;;;2.10;0.00;;;44.70;28.70;;;;;;5069803;28;20091;-74
2022/08/11 16:25:40;;;;;;;0.32;0.00;;;44.50;28.70;;;;;;5054616;28;20074;-74
2022/08/11 16:28:07;;;;;;;0.90;0.00;;;44.60;28.50;;;;;;5054284;28;20021;-74
2022/08/11 16:30:36;;;;;;;6.22;0.40;;;44.30;28.40;;;;;;5069644;28;20043;-74
2022/08/11 16:33:03;;;;;;;2.92;0.00;;;44.30;28.90;;;;;;5054399;28;20083;-74
2022/08/11 16:38:35;;;;;;;1.92;0.00;;;44.30;28.50;;;;;;5054298;28;20512;-74
2022/08/11 16:46:58;;;;;;;0.38;0.00;;;44.30;28.70;;;;;;5069434;28;20107;-74
2022/08/11 16:47:12;;;;;;;1.48;0.00;;;44.10;28.40;;;;;;5041266;28;20389;-74
2022/08/11 16:49:48;;;;;;;0.08;0.08;;;43.70;28.60;;;;;;5053972;28;20438;-74
2022/08/11 16:52:15;;;;;;;1.48;0.00;;;43.50;28.90;;;;;;5054388;28;20028;-74
2022/08/11 16:54:42;;;;;;;1.80;0.00;;;43.20;29.10;;;;;;5053647;28;20020;-74
2022/08/11 17:00:16;;;;;;;4.32;0.00;;;42.80;29.30;;;;;;5053821;28;20090;-74
2022/08/11 17:13:59;;;;;;;1.13;0.00;;;39.60;30.80;;;;;;5053425;28;20516;-73
2022/08/11 17:16:34;;;;;;;0.63;0.00;;;38.00;32.00;;;;;;5053205;28;20022;-73
2022/08/11 17:19:29;;;;;;;2.03;0.00;;;36.50;33.20;;;;;;5068803;28;20017;-73
2022/08/11 17:24:43;;;;;;;0.90;0.00;;;34.40;35.70;;;;;;5054109;28;20107;-73
2022/08/11 17:27:15;;;;;;;2.28;0.00;;;33.60;36.70;;;;;;5053127;28;20021;-73
2022/08/11 17:30:03;;;;;;;2.08;0.00;;;33.00;37.50;;;;;;5053938;28;20025;-73
2022/08/11 17:35:33;;;;;;;0.15;0.00;;;32.10;39.10;;;;;;5054129;28;20078;-73
2022/08/11 17:38:07;;;;;;;0.05;0.05;;;31.80;39.90;;;;;;5053658;28;20421;-73
2022/08/11 17:40:37;;;;;;;1.88;0.00;;;31.50;40.20;;;;;;5052793;28;20059;-73
2022/08/11 17:48:38;;;;;;;1.30;0.00;;;31.00;42.10;;;;;;5059943;28;19912;-73
2022/08/11 17:51:06;;;;;;;0.55;0.22;;;30.90;41.20;;;;;;5072488;28;20028;-72
2022/08/11 18:03:27;;;;;;;4.38;0.10;;;30.30;41.90;;;;;;5057167;28;20028;-75
2022/08/11 18:04:48;;;;;;;2.17;0.00;;;30.20;42.80;;;;;;5056464;28;20120;-75
